< < Back
Terminal Aerodrome Forecast


Current Version              Previous Versions:   1  2  3  4  5  6  7  8  9  

Terminal Aerodrome Forecast

776
FTUS42 KGSP 292100 AAA
TAFHKY
TAF AMD
KHKY 292101Z 2921/3018 00000KT P6SM SCT020 OVC060
      TEMPO 2921/2924 -SHRA BKN020 OVC060
     FM300600 00000KT 3SM BR BKN050
     FM300900 00000KT 2SM BR SCT022
     FM301200 02003KT P6SM SCT022=

Latest METAR

162
SAUS70 KWBC 300600 RRQ
MTRHKY
METAR KHKY 300553Z AUTO 00000KT 2 1/2SM BR FEW001 BKN018 17/16 A2998 RMK
AO2 SLP133 T01670161 10189 20167 57006


USA.gov is the U.S. government's official web portal to all federal, state and local government web resources and services.